Time;durP1;ratioP1;P1;durP2;ratioP2;P2;SDS_P1;SDS_P2;PMS_P1;PMS_P2;Temp;Humidity;BMP_temperature;BMP_pressure;BME280_temperature;BME280_humidity;BME280_pressure;Samples;Min_cycle;Max_cycle;Signal;HPM_P1;HPM_P2
2021/08/22 00:00:55;;;;;;;2.07;1.70;;;;;;;;;;4540536;28;20103;-65
2021/08/22 00:03:05;;;;;;;3.07;1.90;;;;;;;;;;4541759;28;20032;-66
2021/08/22 00:05:16;;;;;;;2.13;1.60;;;;;;;;;;4540782;28;20046;-66
2021/08/22 00:07:27;;;;;;;;;;;;;;;;;;4542690;28;20061;-66
2021/08/22 00:09:37;;;;;;;3.40;1.60;;;;;;;;;;4542946;28;19960;-66
2021/08/22 00:11:48;;;;;;;2.77;1.80;;;;;;;;;;4540612;28;20701;-66
2021/08/22 00:13:59;;;;;;;2.10;1.58;;;;;;;;;;4541013;28;20028;-65
2021/08/22 00:16:10;;;;;;;2.00;1.70;;;;;;;;;;4544363;28;20037;-66
2021/08/22 00:18:20;;;;;;;2.08;1.67;;;;;;;;;;4540620;28;20121;-66
2021/08/22 00:20:30;;;;;;;1.90;1.70;;;;;;;;;;4541178;28;20493;-65
2021/08/22 00:22:41;;;;;;;2.20;1.63;;;;;;;;;;4542587;28;20048;-66
2021/08/22 00:24:51;;;;;;;2.83;1.80;;;;;;;;;;4542658;28;20029;-65
2021/08/22 00:27:03;;;;;;;1.93;1.70;;;;;;;;;;4542706;28;20067;-65
2021/08/22 00:29:13;;;;;;;1.55;1.38;;;;;;;;;;4541547;28;20033;-66
2021/08/22 00:31:23;;;;;;;2.30;1.80;;;;;;;;;;4542307;28;20481;-66
2021/08/22 00:33:34;;;;;;;2.57;1.80;;;;;;;;;;4514041;28;20057;-66
2021/08/22 00:35:44;;;;;;;1.73;1.50;;;;;;;;;;4541523;28;20029;-66
2021/08/22 00:37:56;;;;;;;2.30;1.83;;;;;;;;;;4544266;28;20819;-66
2021/08/22 00:40:07;;;;;;;2.00;1.80;;;;;;;;;;4539018;28;21124;-66
2021/08/22 00:42:18;;;;;;;1.98;1.60;;;;;;;;;;4543254;28;20072;-65
2021/08/22 00:44:28;;;;;;;2.17;1.80;;;;;;;;;;4541930;28;20544;-66
2021/08/22 00:46:39;;;;;;;2.43;1.53;;;;;;;;;;4540759;28;20478;-65
2021/08/22 00:48:49;;;;;;;1.67;1.57;;;;;;;;;;4539104;28;20294;-66
2021/08/22 00:51:00;;;;;;;2.70;1.53;;;;;;;;;;4541272;28;20029;-66
2021/08/22 00:53:10;;;;;;;1.83;1.47;;;;;;;;;;4541390;28;20040;-65
2021/08/22 00:55:21;;;;;;;1.90;1.60;;;;;;;;;;4541506;28;20041;-66
2021/08/22 00:57:33;;;;;;;2.08;1.70;;;;;;;;;;4540578;28;20041;-65
2021/08/22 00:59:43;;;;;;;2.15;1.75;;;;;;;;;;4525744;28;20080;-65
2021/08/22 01:01:55;;;;;;;2.27;1.70;;;;;;;;;;4541693;28;20161;-65
2021/08/22 01:04:25;;;;;;;2.30;1.60;;;;;;;;;;4538129;28;20040;-66
2021/08/22 01:06:46;;;;;;;1.90;1.70;;;;;;;;;;4539435;28;20041;-65
2021/08/22 01:09:05;;;;;;;1.98;1.60;;;;;;;;;;4541578;28;20032;-65
2021/08/22 01:11:17;;;;;;;2.55;1.90;;;;;;;;;;4543059;28;20041;-66
2021/08/22 01:13:33;;;;;;;2.10;1.67;;;;;;;;;;4540089;28;20068;-65
2021/08/22 01:15:45;;;;;;;2.15;1.80;;;;;;;;;;4539815;28;20063;-66
2021/08/22 01:17:55;;;;;;;2.08;1.70;;;;;;;;;;4542143;28;20045;-65
2021/08/22 01:20:09;;;;;;;2.50;1.95;;;;;;;;;;4525110;28;20965;-65
2021/08/22 01:22:22;;;;;;;2.03;1.58;;;;;;;;;;4542113;28;20682;-65
2021/08/22 01:24:32;;;;;;;2.78;2.10;;;;;;;;;;4555655;28;20099;-65
2021/08/22 01:26:43;;;;;;;1.90;1.65;;;;;;;;;;4524965;28;20036;-65
2021/08/22 01:28:54;;;;;;;1.98;1.58;;;;;;;;;;4540759;28;20032;-65
2021/08/22 01:31:09;;;;;;;2.05;1.70;;;;;;;;;;4539675;28;20954;-64
2021/08/22 01:33:19;;;;;;;2.40;1.70;;;;;;;;;;4540887;28;20036;-64
2021/08/22 01:35:31;;;;;;;2.88;2.10;;;;;;;;;;4542801;28;20037;-64
2021/08/22 01:37:43;;;;;;;2.03;1.73;;;;;;;;;;4539650;28;20051;-63
2021/08/22 01:39:54;;;;;;;2.40;1.70;;;;;;;;;;4538836;28;20060;-64
2021/08/22 01:42:08;;;;;;;2.80;2.03;;;;;;;;;;4540710;28;20029;-63
2021/08/22 01:44:20;;;;;;;2.63;1.95;;;;;;;;;;4521252;28;20080;-63
2021/08/22 01:46:33;;;;;;;;;;;;;;;;;;4541679;28;20028;-63
2021/08/22 01:48:44;;;;;;;2.70;1.80;;;;;;;;;;4542509;28;20034;-64
2021/08/22 01:51:02;;;;;;;2.83;2.10;;;;;;;;;;4541035;28;20190;-64
2021/08/22 01:53:13;;;;;;;2.40;1.88;;;;;;;;;;4543098;28;20036;-64
2021/08/22 01:55:23;;;;;;;2.35;1.85;;;;;;;;;;4540795;28;20327;-64
2021/08/22 01:57:38;;;;;;;1.93;1.73;;;;;;;;;;4540820;28;20182;-64
2021/08/22 01:59:48;;;;;;;2.33;1.90;;;;;;;;;;4537958;28;20029;-64
2021/08/22 02:01:59;;;;;;;2.17;1.80;;;;;;;;;;4542163;28;20036;-64
2021/08/22 02:04:09;;;;;;;2.80;2.00;;;;;;;;;;4541201;28;20024;-64
2021/08/22 02:06:46;;;;;;;3.77;2.13;;;;;;;;;;4538916;28;20045;-64
2021/08/22 02:09:01;;;;;;;2.58;2.00;;;;;;;;;;4542293;28;20037;-64
2021/08/22 02:11:20;;;;;;;3.53;1.90;;;;;;;;;;4524276;28;20190;-64
2021/08/22 02:13:35;;;;;;;2.42;1.85;;;;;;;;;;4539503;28;20078;-64
2021/08/22 02:15:46;;;;;;;2.78;2.10;;;;;;;;;;4540376;28;20630;-64
2021/08/22 02:18:03;;;;;;;2.17;1.85;;;;;;;;;;4539007;28;33082;-64
2021/08/22 02:20:14;;;;;;;1.77;1.67;;;;;;;;;;4539271;28;20053;-64
2021/08/22 02:22:24;;;;;;;2.07;1.70;;;;;;;;;;4539478;28;20827;-64
2021/08/22 02:24:35;;;;;;;2.53;1.87;;;;;;;;;;4540614;28;20086;-62
2021/08/22 02:26:46;;;;;;;2.47;2.20;;;;;;;;;;4540021;28;20028;-63
2021/08/22 02:28:58;;;;;;;2.40;2.10;;;;;;;;;;4536730;28;33641;-62
2021/08/22 02:31:11;;;;;;;2.97;1.92;;;;;;;;;;4539896;28;20044;-63
2021/08/22 02:33:22;;;;;;;2.70;1.90;;;;;;;;;;4536821;28;20033;-63
2021/08/22 02:35:34;;;;;;;2.83;2.17;;;;;;;;;;4540599;28;20178;-62
2021/08/22 02:37:44;;;;;;;2.45;1.85;;;;;;;;;;4506891;28;20135;-63
2021/08/22 02:39:55;;;;;;;2.23;1.80;;;;;;;;;;4543047;28;20032;-62
2021/08/22 02:42:06;;;;;;;4.38;1.90;;;;;;;;;;4542398;28;20221;-63
2021/08/22 02:44:17;;;;;;;1.88;1.65;;;;;;;;;;4543543;28;20179;-63
2021/08/22 02:46:27;;;;;;;3.37;1.77;;;;;;;;;;4541747;28;20134;-62
2021/08/22 02:48:37;;;;;;;3.17;2.07;;;;;;;;;;4541461;28;21099;-62
2021/08/22 02:50:48;;;;;;;2.47;1.97;;;;;;;;;;4541006;28;20041;-62
2021/08/22 02:52:58;;;;;;;2.20;1.70;;;;;;;;;;4538601;28;20563;-61
2021/08/22 02:55:09;;;;;;;1.90;1.67;;;;;;;;;;4540563;28;20040;-62
2021/08/22 02:57:20;;;;;;;2.43;1.80;;;;;;;;;;4539108;28;20045;-62
2021/08/22 02:59:30;;;;;;;2.20;1.50;;;;;;;;;;4538228;28;20102;-62
2021/08/22 03:01:41;;;;;;;2.10;1.60;;;;;;;;;;4539708;28;35524;-63
2021/08/22 03:03:51;;;;;;;2.20;1.57;;;;;;;;;;4537650;28;20040;-63
2021/08/22 03:06:02;;;;;;;1.90;1.53;;;;;;;;;;4540024;28;20037;-63
2021/08/22 03:08:12;;;;;;;2.67;1.80;;;;;;;;;;4540680;28;20036;-63
2021/08/22 03:10:23;;;;;;;1.73;1.43;;;;;;;;;;4540433;28;20523;-63
2021/08/22 03:12:33;;;;;;;2.00;1.80;;;;;;;;;;4540273;28;20033;-63
2021/08/22 03:14:43;;;;;;;2.70;1.57;;;;;;;;;;4539495;28;20080;-63
2021/08/22 03:16:54;;;;;;;2.90;1.93;;;;;;;;;;4539352;28;27424;-63
2021/08/22 03:19:04;;;;;;;2.67;1.67;;;;;;;;;;4537899;28;20095;-63
2021/08/22 03:21:15;;;;;;;2.87;1.80;;;;;;;;;;4541514;28;20036;-63
2021/08/22 03:23:25;;;;;;;2.50;1.80;;;;;;;;;;4542303;28;20033;-63
2021/08/22 03:25:35;;;;;;;1.50;1.40;;;;;;;;;;4545102;28;20044;-63
2021/08/22 03:27:46;;;;;;;2.67;1.67;;;;;;;;;;4544674;28;20033;-63
2021/08/22 03:29:56;;;;;;;2.67;1.70;;;;;;;;;;4546442;28;20040;-63
2021/08/22 03:32:08;;;;;;;2.60;1.73;;;;;;;;;;4540635;28;20496;-63
2021/08/22 03:34:18;;;;;;;3.22;1.60;;;;;;;;;;4545161;28;20040;-63
2021/08/22 03:36:28;;;;;;;2.30;1.77;;;;;;;;;;4525748;28;20564;-64
2021/08/22 03:38:39;;;;;;;2.33;1.67;;;;;;;;;;4541275;28;20036;-63
2021/08/22 03:40:49;;;;;;;2.27;1.47;;;;;;;;;;4543030;28;20033;-64
2021/08/22 03:43:00;;;;;;;1.83;1.50;;;;;;;;;;4542386;28;20033;-64
2021/08/22 03:45:10;;;;;;;2.80;1.70;;;;;;;;;;4540562;28;20052;-64
2021/08/22 03:47:21;;;;;;;2.47;1.53;;;;;;;;;;4540521;28;20117;-64
2021/08/22 03:49:31;;;;;;;1.70;1.30;;;;;;;;;;4541331;28;20041;-64
2021/08/22 03:51:42;;;;;;;2.03;1.70;;;;;;;;;;4543175;28;20025;-63
2021/08/22 03:53:52;;;;;;;2.37;1.60;;;;;;;;;;4543110;28;20485;-64
2021/08/22 03:56:03;;;;;;;1.90;1.70;;;;;;;;;;4542674;28;20061;-64
2021/08/22 03:58:13;;;;;;;1.97;1.67;;;;;;;;;;4543472;28;20325;-64
2021/08/22 04:00:24;;;;;;;2.73;1.77;;;;;;;;;;4539540;28;20047;-64
2021/08/22 04:02:34;;;;;;;2.00;1.60;;;;;;;;;;4542260;28;20029;-64
2021/08/22 04:05:05;;;;;;;2.13;1.65;;;;;;;;;;4544747;28;20036;-64
2021/08/22 04:07:16;;;;;;;2.78;1.60;;;;;;;;;;4529275;28;20087;-64
2021/08/22 04:09:26;;;;;;;2.47;1.73;;;;;;;;;;4540219;28;20120;-64
2021/08/22 04:11:37;;;;;;;2.33;1.60;;;;;;;;;;4543729;28;20034;-64
2021/08/22 04:13:47;;;;;;;2.07;1.60;;;;;;;;;;4540861;28;27565;-64
2021/08/22 04:15:57;;;;;;;2.43;1.50;;;;;;;;;;4543730;28;20123;-64
2021/08/22 04:18:08;;;;;;;2.00;1.57;;;;;;;;;;4542274;28;31893;-64
2021/08/22 04:20:19;;;;;;;1.77;1.40;;;;;;;;;;4540197;28;20041;-64
2021/08/22 04:22:29;;;;;;;2.27;1.60;;;;;;;;;;4542640;28;20032;-64
2021/08/22 04:24:39;;;;;;;2.17;1.30;;;;;;;;;;4527742;28;20703;-64
2021/08/22 04:26:50;;;;;;;2.63;1.63;;;;;;;;;;4541044;28;20078;-64
2021/08/22 04:29:01;;;;;;;3.33;1.43;;;;;;;;;;4537921;28;20025;-63
2021/08/22 04:31:11;;;;;;;2.10;1.60;;;;;;;;;;4539277;28;20635;-64
2021/08/22 04:33:22;;;;;;;1.60;1.50;;;;;;;;;;4541441;28;20090;-64
2021/08/22 04:35:32;;;;;;;3.27;1.67;;;;;;;;;;4541074;28;20033;-64
2021/08/22 04:37:43;;;;;;;1.90;1.33;;;;;;;;;;4541042;28;20059;-64
2021/08/22 04:39:55;;;;;;;1.57;1.40;;;;;;;;;;4540433;28;20108;-64
2021/08/22 04:42:06;;;;;;;2.30;1.48;;;;;;;;;;4537636;28;20055;-64
2021/08/22 04:44:16;;;;;;;2.27;1.63;;;;;;;;;;4541657;28;20074;-64
2021/08/22 04:46:26;;;;;;;2.13;1.87;;;;;;;;;;4543412;28;20034;-64
2021/08/22 04:48:37;;;;;;;2.00;1.53;;;;;;;;;;4538723;28;32316;-64
2021/08/22 04:50:47;;;;;;;2.27;1.70;;;;;;;;;;4544132;28;20033;-64
2021/08/22 04:52:58;;;;;;;1.93;1.70;;;;;;;;;;4542410;28;20114;-64
2021/08/22 04:55:08;;;;;;;2.20;1.70;;;;;;;;;;4542274;28;20067;-64
2021/08/22 04:57:19;;;;;;;2.72;1.90;;;;;;;;;;4541878;28;20052;-64
2021/08/22 04:59:29;;;;;;;2.70;1.77;;;;;;;;;;4542966;28;20694;-64
2021/08/22 05:01:40;;;;;;;2.10;1.60;;;;;;;;;;4542719;28;20752;-64
2021/08/22 05:03:50;;;;;;;1.80;1.50;;;;;;;;;;4540245;28;20045;-64
2021/08/22 05:06:00;;;;;;;1.60;1.47;;;;;;;;;;4537243;28;20040;-64
2021/08/22 05:08:11;;;;;;;2.47;1.97;;;;;;;;;;4539236;28;20033;-64
2021/08/22 05:10:21;;;;;;;2.23;1.43;;;;;;;;;;4540189;28;20512;-64
2021/08/22 05:12:32;;;;;;;2.97;1.73;;;;;;;;;;4540109;28;20514;-64
2021/08/22 05:14:43;;;;;;;1.98;1.60;;;;;;;;;;4525080;28;20021;-64
2021/08/22 05:16:53;;;;;;;3.00;1.77;;;;;;;;;;4540106;28;20505;-65
2021/08/22 05:19:04;;;;;;;2.03;1.63;;;;;;;;;;4541271;28;20052;-64
2021/08/22 05:21:14;;;;;;;2.00;1.60;;;;;;;;;;4542514;28;20123;-64
2021/08/22 05:23:25;;;;;;;2.47;1.83;;;;;;;;;;4539001;28;20556;-64
2021/08/22 05:25:35;;;;;;;2.17;1.67;;;;;;;;;;4540204;28;30315;-64
2021/08/22 05:27:46;;;;;;;2.67;1.80;;;;;;;;;;4540429;28;21547;-64
2021/08/22 05:29:56;;;;;;;2.40;1.93;;;;;;;;;;4543111;28;20561;-64
2021/08/22 05:32:07;;;;;;;3.00;1.90;;;;;;;;;;4541776;28;22727;-64
2021/08/22 05:34:17;;;;;;;3.22;1.77;;;;;;;;;;4557008;28;20028;-64
2021/08/22 05:36:27;;;;;;;2.73;1.67;;;;;;;;;;4539479;28;20037;-64
2021/08/22 05:38:46;;;;;;;2.30;1.80;;;;;;;;;;4540697;28;20276;-64
2021/08/22 05:40:56;;;;;;;2.10;1.90;;;;;;;;;;4540738;28;20564;-64
2021/08/22 05:43:06;;;;;;;2.03;1.60;;;;;;;;;;4539744;28;20055;-64
2021/08/22 05:45:17;;;;;;;1.83;1.47;;;;;;;;;;4537866;28;20032;-65
2021/08/22 05:47:27;;;;;;;2.50;1.80;;;;;;;;;;4536704;28;20811;-64
2021/08/22 05:49:39;;;;;;;2.17;1.63;;;;;;;;;;4540389;28;20029;-64
2021/08/22 05:51:49;;;;;;;3.80;1.90;;;;;;;;;;4540623;28;20033;-65
2021/08/22 05:54:00;;;;;;;2.27;1.77;;;;;;;;;;4539155;28;32267;-64
2021/08/22 05:56:10;;;;;;;2.00;1.80;;;;;;;;;;4538459;28;20324;-64
2021/08/22 05:58:21;;;;;;;1.87;1.50;;;;;;;;;;4538584;28;20413;-64
2021/08/22 06:00:31;;;;;;;2.63;1.80;;;;;;;;;;4541260;28;20033;-64
2021/08/22 06:02:41;;;;;;;1.93;1.67;;;;;;;;;;4541453;28;20485;-64
2021/08/22 06:04:52;;;;;;;3.40;2.00;;;;;;;;;;4539862;28;20033;-65
2021/08/22 06:07:02;;;;;;;3.27;1.90;;;;;;;;;;4538821;28;20638;-64
2021/08/22 06:09:13;;;;;;;3.03;2.00;;;;;;;;;;4536906;28;20098;-64
2021/08/22 06:11:23;;;;;;;2.47;1.70;;;;;;;;;;4539906;28;20044;-64
2021/08/22 06:13:34;;;;;;;2.33;1.80;;;;;;;;;;4538274;28;20120;-64
2021/08/22 06:15:44;;;;;;;2.20;1.80;;;;;;;;;;4539903;28;20850;-64
2021/08/22 06:17:54;;;;;;;2.33;2.00;;;;;;;;;;4538070;28;20045;-64
2021/08/22 06:20:06;;;;;;;2.50;2.00;;;;;;;;;;4540163;28;30693;-64
2021/08/22 06:22:16;;;;;;;2.63;2.05;;;;;;;;;;4525427;28;20720;-64
2021/08/22 06:24:26;;;;;;;2.23;1.90;;;;;;;;;;4541511;28;20033;-63
2021/08/22 06:26:37;;;;;;;2.70;2.20;;;;;;;;;;4539976;28;20080;-64
2021/08/22 06:28:47;;;;;;;2.73;1.80;;;;;;;;;;4523765;28;20037;-64
2021/08/22 06:30:58;;;;;;;3.37;2.30;;;;;;;;;;4537147;28;20036;-64
2021/08/22 06:33:09;;;;;;;3.43;2.50;;;;;;;;;;4539291;28;20036;-64
2021/08/22 06:35:19;;;;;;;3.25;2.40;;;;;;;;;;4539351;28;20079;-64
2021/08/22 06:37:30;;;;;;;4.37;2.37;;;;;;;;;;4536525;28;20219;-64
2021/08/22 06:39:41;;;;;;;3.33;2.60;;;;;;;;;;4537789;28;20503;-64
2021/08/22 06:41:51;;;;;;;2.97;2.40;;;;;;;;;;4537502;28;20045;-64
2021/08/22 06:44:03;;;;;;;2.87;2.40;;;;;;;;;;4538567;28;24751;-64
2021/08/22 06:46:13;;;;;;;3.70;2.58;;;;;;;;;;4540220;28;20612;-64
2021/08/22 06:48:23;;;;;;;3.53;2.50;;;;;;;;;;4540579;28;21418;-64
2021/08/22 06:50:34;;;;;;;3.37;2.50;;;;;;;;;;4539800;28;20098;-64
2021/08/22 06:52:44;;;;;;;3.87;2.67;;;;;;;;;;4540372;28;20037;-64
2021/08/22 06:54:55;;;;;;;3.60;2.80;;;;;;;;;;4540556;28;20056;-64
2021/08/22 06:57:05;;;;;;;3.50;2.77;;;;;;;;;;4540075;28;20203;-64
2021/08/22 06:59:15;;;;;;;4.27;2.90;;;;;;;;;;4541633;28;20048;-63
2021/08/22 07:01:26;;;;;;;4.10;2.97;;;;;;;;;;4541856;28;20382;-65
2021/08/22 07:03:36;;;;;;;4.17;3.00;;;;;;;;;;4541855;28;20028;-64
2021/08/22 07:05:47;;;;;;;3.30;2.70;;;;;;;;;;4539356;28;20915;-64
2021/08/22 07:07:57;;;;;;;3.63;2.80;;;;;;;;;;4541432;28;20029;-64
2021/08/22 07:10:09;;;;;;;2.80;2.50;;;;;;;;;;4538831;28;20047;-65
2021/08/22 07:12:19;;;;;;;4.57;2.85;;;;;;;;;;4539121;28;21207;-64
2021/08/22 07:14:30;;;;;;;4.50;3.23;;;;;;;;;;4552812;28;20036;-65
2021/08/22 07:16:40;;;;;;;3.63;3.00;;;;;;;;;;4539624;28;20047;-65
2021/08/22 07:18:51;;;;;;;4.70;3.13;;;;;;;;;;4538405;28;20044;-64
2021/08/22 07:21:03;;;;;;;4.87;3.30;;;;;;;;;;4540693;28;20067;-64
2021/08/22 07:23:14;;;;;;;4.63;3.25;;;;;;;;;;4522125;28;20606;-65
2021/08/22 07:25:25;;;;;;;4.17;3.30;;;;;;;;;;4541104;28;20087;-66
2021/08/22 07:27:35;;;;;;;3.80;3.07;;;;;;;;;;4541165;28;20036;-66
2021/08/22 07:29:45;;;;;;;4.13;3.53;;;;;;;;;;4540158;28;20044;-65
2021/08/22 07:31:56;;;;;;;3.80;3.20;;;;;;;;;;4539352;28;20033;-65
2021/08/22 07:34:06;;;;;;;4.20;3.40;;;;;;;;;;4541340;28;20033;-64
2021/08/22 07:36:17;;;;;;;5.43;3.87;;;;;;;;;;4539366;28;20049;-64
2021/08/22 07:38:27;;;;;;;5.07;3.73;;;;;;;;;;4537694;28;20072;-65
2021/08/22 07:40:39;;;;;;;4.30;3.40;;;;;;;;;;4540606;28;20042;-65
2021/08/22 07:42:49;;;;;;;4.57;3.72;;;;;;;;;;4502346;28;20033;-65
2021/08/22 07:45:00;;;;;;;5.20;3.90;;;;;;;;;;4538708;28;20041;-64
2021/08/22 07:47:10;;;;;;;4.47;3.73;;;;;;;;;;4515321;28;20506;-65
2021/08/22 07:49:20;;;;;;;4.83;3.63;;;;;;;;;;4541803;28;20695;-65
2021/08/22 07:51:31;;;;;;;5.07;3.80;;;;;;;;;;4539613;28;20044;-65
2021/08/22 07:53:42;;;;;;;4.90;3.67;;;;;;;;;;4542636;28;20024;-65
2021/08/22 07:55:52;;;;;;;5.33;3.57;;;;;;;;;;4538450;28;20033;-65
2021/08/22 07:58:02;;;;;;;4.60;3.80;;;;;;;;;;4540440;28;20045;-65
2021/08/22 08:00:13;;;;;;;5.70;3.90;;;;;;;;;;4538683;28;20056;-65
2021/08/22 08:02:23;;;;;;;4.80;3.80;;;;;;;;;;4540252;28;20453;-65
2021/08/22 08:04:34;;;;;;;5.03;4.20;;;;;;;;;;4537596;28;20029;-65
2021/08/22 08:06:44;;;;;;;5.50;4.10;;;;;;;;;;4525550;28;20125;-65
2021/08/22 08:08:55;;;;;;;5.90;3.90;;;;;;;;;;4521511;28;20037;-65
2021/08/22 08:11:05;;;;;;;5.17;4.00;;;;;;;;;;4541306;28;20020;-65
2021/08/22 08:13:16;;;;;;;5.03;3.90;;;;;;;;;;4540833;28;20377;-65
2021/08/22 08:15:26;;;;;;;4.97;3.93;;;;;;;;;;4509818;28;20033;-64
2021/08/22 08:17:37;;;;;;;5.47;4.20;;;;;;;;;;4540785;28;20036;-65
2021/08/22 08:19:47;;;;;;;5.87;4.27;;;;;;;;;;4542753;28;20040;-64
2021/08/22 08:21:58;;;;;;;4.53;3.83;;;;;;;;;;4539867;28;21143;-64
2021/08/22 08:24:08;;;;;;;4.77;3.93;;;;;;;;;;4542295;28;20040;-65
2021/08/22 08:26:20;;;;;;;4.80;3.67;;;;;;;;;;4524703;28;20481;-65
2021/08/22 08:28:31;;;;;;;;;;;;;;;;;;4543828;28;21230;-64
2021/08/22 08:30:42;;;;;;;4.93;4.03;;;;;;;;;;4542619;28;19921;-64
2021/08/22 08:32:52;;;;;;;3.93;3.30;;;;;;;;;;4541745;28;20271;-65
2021/08/22 08:35:03;;;;;;;4.23;3.43;;;;;;;;;;4541020;28;20646;-65
2021/08/22 08:37:13;;;;;;;5.27;4.00;;;;;;;;;;4545703;28;20029;-65
2021/08/22 08:39:23;;;;;;;4.20;3.33;;;;;;;;;;4542338;28;20103;-65
2021/08/22 08:41:34;;;;;;;3.90;3.17;;;;;;;;;;4540780;28;20084;-65
2021/08/22 08:43:46;;;;;;;4.27;3.50;;;;;;;;;;4540969;28;20033;-65
2021/08/22 08:46:15;;;;;;;4.38;3.20;;;;;;;;;;4542478;28;20036;-65
2021/08/22 08:48:30;;;;;;;3.58;3.08;;;;;;;;;;4542233;28;20068;-65
2021/08/22 08:50:48;;;;;;;4.38;3.20;;;;;;;;;;4542594;28;20991;-65
2021/08/22 08:53:11;;;;;;;4.10;3.05;;;;;;;;;;4542668;28;20072;-65
2021/08/22 08:55:33;;;;;;;4.25;3.03;;;;;;;;;;4524228;28;20541;-65
2021/08/22 08:57:44;;;;;;;3.70;2.85;;;;;;;;;;4539664;28;20048;-65
2021/08/22 08:59:54;;;;;;;3.67;2.97;;;;;;;;;;4540835;28;20021;-65
2021/08/22 09:02:05;;;;;;;4.07;2.90;;;;;;;;;;4541805;28;20120;-65
2021/08/22 09:04:28;;;;;;;3.87;2.97;;;;;;;;;;4539540;28;20267;-65
2021/08/22 09:07:10;;;;;;;4.43;2.92;;;;;;;;;;4540351;28;20120;-65
2021/08/22 09:09:45;;;;;;;3.90;3.08;;;;;;;;;;4540954;28;20055;-65
2021/08/22 09:12:22;;;;;;;3.38;2.65;;;;;;;;;;4542472;28;20033;-65
2021/08/22 09:15:10;;;;;;;3.55;2.95;;;;;;;;;;4542100;28;20037;-64
2021/08/22 09:17:58;;;;;;;3.42;2.70;;;;;;;;;;4541590;28;20037;-65
2021/08/22 09:20:46;;;;;;;4.88;3.00;;;;;;;;;;4541780;28;20037;-65
2021/08/22 09:23:49;;;;;;;3.30;2.58;;;;;;;;;;4540452;28;20041;-65
2021/08/22 09:26:31;;;;;;;3.72;2.85;;;;;;;;;;4539474;28;21216;-65
2021/08/22 09:29:19;;;;;;;3.97;3.03;;;;;;;;;;4539382;28;20037;-65
2021/08/22 09:32:06;;;;;;;4.18;3.33;;;;;;;;;;4540867;28;20039;-65
2021/08/22 09:34:54;;;;;;;5.43;3.85;;;;;;;;;;4541784;28;20037;-65
2021/08/22 09:37:05;;;;;;;4.95;3.80;;;;;;;;;;4539340;28;20108;-65
2021/08/22 09:39:46;;;;;;;4.60;3.50;;;;;;;;;;4542070;28;20091;-65
2021/08/22 09:42:34;;;;;;;4.63;3.40;;;;;;;;;;4540959;28;20032;-65
2021/08/22 09:44:46;;;;;;;4.18;3.35;;;;;;;;;;4540752;28;20044;-65
2021/08/22 09:47:41;;;;;;;3.60;3.05;;;;;;;;;;4539584;28;20045;-65
2021/08/22 09:50:32;;;;;;;4.50;3.55;;;;;;;;;;4541538;28;20044;-65
2021/08/22 09:52:51;;;;;;;4.05;3.53;;;;;;;;;;4538727;28;20059;-65
2021/08/22 09:55:39;;;;;;;4.25;3.72;;;;;;;;;;4540500;28;20041;-65
2021/08/22 09:58:37;;;;;;;5.55;4.50;;;;;;;;;;4540706;28;20098;-65
2021/08/22 10:01:18;;;;;;;3.85;3.40;;;;;;;;;;4490173;28;20033;-65
2021/08/22 10:04:14;;;;;;;4.32;3.60;;;;;;;;;;4540080;28;20039;-65
2021/08/22 10:06:55;;;;;;;4.07;3.67;;;;;;;;;;4519671;28;20044;-65
2021/08/22 10:09:10;;;;;;;4.40;3.60;;;;;;;;;;4542652;28;20570;-65
2021/08/22 10:11:34;;;;;;;4.57;3.50;;;;;;;;;;4541203;28;20041;-65
2021/08/22 10:13:44;;;;;;;4.63;3.60;;;;;;;;;;4542606;28;20021;-65
2021/08/22 10:15:55;;;;;;;4.43;3.28;;;;;;;;;;4522734;28;20269;-65
2021/08/22 10:18:07;;;;;;;3.58;3.03;;;;;;;;;;4538206;28;20839;-65
2021/08/22 10:20:18;;;;;;;3.20;2.63;;;;;;;;;;4522328;28;20095;-65
2021/08/22 10:22:33;;;;;;;2.70;2.10;;;;;;;;;;4524540;28;20052;-65
2021/08/22 10:25:00;;;;;;;3.42;2.00;;;;;;;;;;4541775;28;20036;-65
2021/08/22 10:27:14;;;;;;;2.25;1.80;;;;;;;;;;4541608;28;20798;-65
2021/08/22 10:29:25;;;;;;;2.90;2.10;;;;;;;;;;4514523;28;20045;-65
2021/08/22 10:31:54;;;;;;;2.40;1.83;;;;;;;;;;4523210;28;20037;-65
2021/08/22 10:34:14;;;;;;;2.58;2.08;;;;;;;;;;4540689;28;20037;-65
2021/08/22 10:36:30;;;;;;;3.75;1.90;;;;;;;;;;4538163;28;20033;-65
2021/08/22 10:38:41;;;;;;;2.60;1.88;;;;;;;;;;4524047;28;20585;-65
2021/08/22 10:40:52;;;;;;;2.47;1.90;;;;;;;;;;4540286;28;26518;-65
2021/08/22 10:43:07;;;;;;;2.40;1.80;;;;;;;;;;4544249;28;20033;-65
2021/08/22 10:45:45;;;;;;;2.40;1.70;;;;;;;;;;4539039;28;20580;-65
2021/08/22 10:47:56;;;;;;;2.63;1.90;;;;;;;;;;4537143;28;20563;-65
2021/08/22 10:50:07;;;;;;;2.13;1.70;;;;;;;;;;4540682;28;20060;-65
2021/08/22 10:52:25;;;;;;;2.63;2.20;;;;;;;;;;4540625;28;20473;-65
2021/08/22 10:54:35;;;;;;;2.30;1.80;;;;;;;;;;4541421;28;20040;-64
2021/08/22 10:56:45;;;;;;;2.57;2.07;;;;;;;;;;4538181;28;20044;-65
2021/08/22 10:58:57;;;;;;;2.37;2.00;;;;;;;;;;4540917;28;20032;-65
2021/08/22 11:01:17;;;;;;;2.40;1.90;;;;;;;;;;4539007;28;20028;-65
2021/08/22 11:03:29;;;;;;;2.38;2.08;;;;;;;;;;4541960;28;20024;-65
2021/08/22 11:05:39;;;;;;;3.45;2.30;;;;;;;;;;4539136;28;20040;-65
2021/08/22 11:07:52;;;;;;;2.50;1.97;;;;;;;;;;4539545;28;20041;-64
2021/08/22 11:10:04;;;;;;;2.33;1.92;;;;;;;;;;4536349;28;20565;-64
2021/08/22 11:12:21;;;;;;;;;;;;;;;;;;4536652;28;20142;-65
2021/08/22 11:14:32;;;;;;;2.35;2.05;;;;;;;;;;4542711;28;19990;-65
2021/08/22 11:16:45;;;;;;;2.80;2.40;;;;;;;;;;4538349;28;20083;-65
2021/08/22 11:19:04;;;;;;;2.90;2.20;;;;;;;;;;4526047;28;20552;-65
2021/08/22 11:21:27;;;;;;;3.75;2.60;;;;;;;;;;4540297;28;20036;-65
2021/08/22 11:23:38;;;;;;;3.40;2.45;;;;;;;;;;4540678;28;20107;-65
2021/08/22 11:25:59;;;;;;;2.65;2.40;;;;;;;;;;4539918;28;20044;-65
2021/08/22 11:28:18;;;;;;;2.78;2.35;;;;;;;;;;4538035;28;20116;-65
2021/08/22 11:30:29;;;;;;;3.25;2.20;;;;;;;;;;4538638;28;20141;-65
2021/08/22 11:32:49;;;;;;;2.90;1.70;;;;;;;;;;4535887;28;20809;-64
2021/08/22 11:35:15;;;;;;;1.95;1.75;;;;;;;;;;4538055;28;20033;-65
2021/08/22 11:37:25;;;;;;;2.40;1.60;;;;;;;;;;4539253;28;20516;-65
2021/08/22 11:39:36;;;;;;;2.03;1.80;;;;;;;;;;4538551;28;20033;-65
2021/08/22 11:41:50;;;;;;;1.97;1.70;;;;;;;;;;4537951;28;24570;-64
2021/08/22 11:44:01;;;;;;;2.47;1.98;;;;;;;;;;4520008;28;20033;-65
2021/08/22 11:46:16;;;;;;;2.93;1.80;;;;;;;;;;4542159;28;25110;-65
2021/08/22 11:48:26;;;;;;;2.05;1.48;;;;;;;;;;4542308;28;20033;-65
2021/08/22 11:50:37;;;;;;;2.80;1.67;;;;;;;;;;4542495;28;20038;-65
2021/08/22 11:52:49;;;;;;;1.97;1.40;;;;;;;;;;4539519;28;20238;-65
2021/08/22 11:55:00;;;;;;;2.33;1.60;;;;;;;;;;4541253;28;20631;-64
2021/08/22 11:57:21;;;;;;;1.70;1.60;;;;;;;;;;4544380;28;20041;-65
2021/08/22 11:59:31;;;;;;;2.13;1.70;;;;;;;;;;4539454;28;20041;-65
2021/08/22 12:01:42;;;;;;;2.60;1.83;;;;;;;;;;4542341;28;20033;-65
2021/08/22 12:04:01;;;;;;;2.17;1.87;;;;;;;;;;4541674;28;20395;-65
2021/08/22 12:06:20;;;;;;;2.60;1.95;;;;;;;;;;4540478;28;20037;-65
2021/08/22 12:08:31;;;;;;;2.40;1.80;;;;;;;;;;4543698;28;20166;-65
2021/08/22 12:10:42;;;;;;;2.35;2.05;;;;;;;;;;4528133;28;20037;-65
2021/08/22 12:12:54;;;;;;;2.00;1.80;;;;;;;;;;4543207;28;20033;-64
2021/08/22 12:15:08;;;;;;;2.20;1.80;;;;;;;;;;4542357;28;20033;-65
2021/08/22 12:17:23;;;;;;;2.80;1.75;;;;;;;;;;4541505;28;20112;-65
2021/08/22 12:19:35;;;;;;;2.20;2.00;;;;;;;;;;4543591;28;20033;-65
2021/08/22 12:21:50;;;;;;;2.90;2.03;;;;;;;;;;4542236;28;20030;-65
2021/08/22 12:24:17;;;;;;;2.45;2.05;;;;;;;;;;4544200;28;20040;-65
2021/08/22 12:26:30;;;;;;;2.50;2.05;;;;;;;;;;4539839;28;20027;-65
2021/08/22 12:28:44;;;;;;;2.50;2.15;;;;;;;;;;4542972;28;20040;-65
2021/08/22 12:31:03;;;;;;;2.72;2.35;;;;;;;;;;4541311;28;20043;-64
2021/08/22 12:33:27;;;;;;;3.00;2.40;;;;;;;;;;4522289;28;20044;-65
2021/08/22 12:35:38;;;;;;;3.55;2.50;;;;;;;;;;4542568;28;20029;-66
2021/08/22 12:37:48;;;;;;;3.40;2.30;;;;;;;;;;4539996;28;20493;-66
2021/08/22 12:40:01;;;;;;;2.20;2.00;;;;;;;;;;4541526;28;20068;-66
2021/08/22 12:42:17;;;;;;;3.35;2.70;;;;;;;;;;4539579;28;20115;-66
2021/08/22 12:44:28;;;;;;;2.85;2.40;;;;;;;;;;4541568;28;20112;-66
2021/08/22 12:46:40;;;;;;;3.17;2.60;;;;;;;;;;4540483;28;20151;-68
2021/08/22 12:48:51;;;;;;;3.10;2.25;;;;;;;;;;4511159;28;20095;-66
2021/08/22 12:51:08;;;;;;;2.55;2.20;;;;;;;;;;4543458;28;20025;-65
2021/08/22 12:53:18;;;;;;;2.80;2.42;;;;;;;;;;4528368;28;20379;-65
2021/08/22 12:55:28;;;;;;;2.93;2.63;;;;;;;;;;4524285;28;20021;-66
2021/08/22 12:57:39;;;;;;;4.07;2.63;;;;;;;;;;4542969;28;20041;-66
2021/08/22 12:59:49;;;;;;;3.67;2.43;;;;;;;;;;4542049;28;21976;-66
2021/08/22 13:02:00;;;;;;;2.90;2.40;;;;;;;;;;4540053;28;20497;-65
2021/08/22 13:04:12;;;;;;;3.60;2.58;;;;;;;;;;4540171;28;20702;-66
2021/08/22 13:06:24;;;;;;;2.50;2.15;;;;;;;;;;4539528;28;20359;-66
2021/08/22 13:08:34;;;;;;;3.15;2.60;;;;;;;;;;4527403;28;20033;-66
2021/08/22 13:10:45;;;;;;;3.43;2.53;;;;;;;;;;4541472;28;20033;-65
2021/08/22 13:12:55;;;;;;;2.53;2.17;;;;;;;;;;4541461;28;20124;-66
2021/08/22 13:15:06;;;;;;;2.67;2.00;;;;;;;;;;4541768;28;20406;-66
2021/08/22 13:17:17;;;;;;;3.25;2.40;;;;;;;;;;4540036;28;20033;-65
2021/08/22 13:19:27;;;;;;;2.43;2.07;;;;;;;;;;4541550;28;20124;-65
2021/08/22 13:21:38;;;;;;;2.93;2.30;;;;;;;;;;4543042;28;20486;-65
2021/08/22 13:23:52;;;;;;;2.72;2.30;;;;;;;;;;4539289;28;20893;-65